Time,TemperatureF,DewpointF,PressureIn,WindDirection,WindDirectionDegrees,WindSpeedMPH,WindSpeedGustMPH,Humidity,HourlyPrecipIn,Conditions,Clouds,dailyrainin,SoftwareType,DateUTC
2013-03-24 00:03:00,33.4,17.0,29.96,SSE,158,0.0,4.0,51,0.00,,,0.00,weatherlink.com 1.10,2013-03-24 04:03:00,
2013-03-24 00:18:00,33.2,17.0,29.96,ESE,122,0.0,3.0,51,0.00,,,0.00,weatherlink.com 1.10,2013-03-24 04:18:00,
2013-03-24 00:33:00,33.1,17.0,29.95,ESE,122,0.0,3.0,51,0.00,,,0.00,weatherlink.com 1.10,2013-03-24 04:33:00,
2013-03-24 00:48:00,32.5,17.0,29.95,SE,139,0.0,3.0,54,0.00,,,0.00,weatherlink.com 1.10,2013-03-24 04:48:00,
2013-03-24 01:03:00,32.4,17.0,29.95,SSE,150,1.0,3.0,54,0.00,,,0.00,weatherlink.com 1.10,2013-03-24 05:03:00,
2013-03-24 01:18:00,32.1,17.0,29.95,ESE,115,0.0,4.0,55,0.00,,,0.00,weatherlink.com 1.10,2013-03-24 05:18:00,
2013-03-24 01:33:00,32.1,17.0,29.95,SE,134,0.0,3.0,55,0.00,,,0.00,weatherlink.com 1.10,2013-03-24 05:33:00,
2013-03-24 01:48:00,31.6,17.0,29.95,SE,125,0.0,1.0,56,0.00,,,0.00,weatherlink.com 1.10,2013-03-24 05:48:00,
2013-03-24 02:04:00,31.1,18.0,29.95,ESE,123,0.0,2.0,58,0.00,,,0.00,weatherlink.com 1.10,2013-03-24 06:04:00,
2013-03-24 02:19:00,30.4,17.0,29.94,ESE,122,0.0,1.0,59,0.00,,,0.00,weatherlink.com 1.10,2013-03-24 06:19:00,
2013-03-24 02:34:00,29.5,17.0,29.94,SE,124,0.0,0.0,60,0.00,,,0.00,weatherlink.com 1.10,2013-03-24 06:34:00,
2013-03-24 02:49:00,29.6,17.0,29.93,SE,126,0.0,1.0,60,0.00,,,0.00,weatherlink.com 1.10,2013-03-24 06:49:00,
2013-03-24 03:04:00,28.8,17.0,29.93,SE,125,0.0,0.0,61,0.00,,,0.00,weatherlink.com 1.10,2013-03-24 07:04:00,
2013-03-24 03:19:00,28.1,17.0,29.94,SE,125,0.0,0.0,63,0.00,,,0.00,weatherlink.com 1.10,2013-03-24 07:19:00,
2013-03-24 03:34:00,28.6,17.0,29.94,SE,126,0.0,1.0,62,0.00,,,0.00,weatherlink.com 1.10,2013-03-24 07:34:00,
2013-03-24 03:49:00,28.5,17.0,29.95,SE,125,0.0,1.0,62,0.00,,,0.00,weatherlink.com 1.10,2013-03-24 07:49:00,
2013-03-24 04:19:00,27.6,16.0,29.95,SE,125,0.0,0.0,63,0.00,,,0.00,weatherlink.com 1.10,2013-03-24 08:19:00,
2013-03-24 04:34:00,27.7,17.0,29.95,SE,125,0.0,1.0,64,0.00,,,0.00,weatherlink.com 1.10,2013-03-24 08:34:00,
2013-03-24 04:49:00,27.6,17.0,29.95,SE,125,0.0,0.0,64,0.00,,,0.00,weatherlink.com 1.10,2013-03-24 08:49:00,
2013-03-24 05:04:00,28.1,17.0,29.95,ESE,122,0.0,1.0,63,0.00,,,0.00,weatherlink.com 1.10,2013-03-24 09:04:00,
2013-03-24 05:19:00,28.1,17.0,29.96,ESE,119,0.0,1.0,63,0.00,,,0.00,weatherlink.com 1.10,2013-03-24 09:19:00,
2013-03-24 05:34:00,28.0,17.0,29.96,ESE,121,0.0,1.0,64,0.00,,,0.00,weatherlink.com 1.10,2013-03-24 09:34:00,
2013-03-24 05:49:00,27.9,17.0,29.96,ESE,118,0.0,1.0,64,0.00,,,0.00,weatherlink.com 1.10,2013-03-24 09:49:00,
2013-03-24 06:04:00,28.0,17.0,29.96,ESE,119,0.0,1.0,64,0.00,,,0.00,weatherlink.com 1.10,2013-03-24 10:04:00,
2013-03-24 06:19:00,28.6,17.0,29.96,ESE,123,1.0,1.0,63,0.00,,,0.00,weatherlink.com 1.10,2013-03-24 10:19:00,
2013-03-24 06:34:00,28.8,17.0,29.96,ESE,116,1.0,3.0,62,0.00,,,0.00,weatherlink.com 1.10,2013-03-24 10:34:00,
2013-03-24 06:49:00,28.9,17.0,29.96,ESE,115,1.0,2.0,62,0.00,,,0.00,weatherlink.com 1.10,2013-03-24 10:49:00,
2013-03-24 07:04:00,29.2,18.0,29.96,ESE,122,0.0,3.0,62,0.00,,,0.00,weatherlink.com 1.10,2013-03-24 11:04:00,
2013-03-24 07:19:00,29.1,17.0,29.97,ESE,121,0.0,1.0,61,0.00,,,0.00,weatherlink.com 1.10,2013-03-24 11:19:00,
2013-03-24 07:34:00,29.0,17.0,29.97,ESE,121,0.0,1.0,62,0.00,,,0.00,weatherlink.com 1.10,2013-03-24 11:34:00,
2013-03-24 07:49:00,29.9,18.0,29.97,ESE,119,0.0,2.0,61,0.00,,,0.00,weatherlink.com 1.10,2013-03-24 11:49:00,
2013-03-24 08:04:00,30.9,18.0,29.98,ESE,121,1.0,3.0,59,0.00,,,0.00,weatherlink.com 1.10,2013-03-24 12:04:00,
2013-03-24 08:19:00,31.7,18.0,29.98,ESE,110,2.0,3.0,58,0.00,,,0.00,weatherlink.com 1.10,2013-03-24 12:19:00,
2013-03-24 08:34:00,32.5,18.0,29.98,ESE,122,2.0,5.0,56,0.00,,,0.00,weatherlink.com 1.10,2013-03-24 12:34:00,
2013-03-24 08:49:00,33.1,18.0,29.96,SE,131,0.0,2.0,55,0.00,,,0.00,weatherlink.com 1.10,2013-03-24 12:49:00,
2013-03-24 09:04:00,33.7,19.0,29.97,SE,129,0.0,2.0,55,0.00,,,0.00,weatherlink.com 1.10,2013-03-24 13:04:00,
2013-03-24 09:19:00,34.2,19.0,29.97,ESE,104,0.0,4.0,55,0.00,,,0.00,weatherlink.com 1.10,2013-03-24 13:19:00,
2013-03-24 09:34:00,35.4,20.0,29.96,SE,127,1.0,3.0,54,0.00,,,0.00,weatherlink.com 1.10,2013-03-24 13:34:00,
2013-03-24 09:49:00,36.9,20.0,29.96,ESE,118,1.0,4.0,51,0.00,,,0.00,weatherlink.com 1.10,2013-03-24 13:49:00,
2013-03-24 10:05:00,38.7,20.0,29.95,ESE,120,4.0,4.0,47,0.00,,,0.00,weatherlink.com 1.10,2013-03-24 14:05:00,
2013-03-24 10:20:00,39.0,20.0,29.94,WNW,298,0.0,4.0,47,0.00,,,0.00,weatherlink.com 1.10,2013-03-24 14:20:00,
2013-03-24 10:35:00,39.1,20.0,29.93,SSE,156,3.0,4.0,47,0.00,,,0.00,weatherlink.com 1.10,2013-03-24 14:35:00,
2013-03-24 10:50:00,39.6,20.0,29.93,WNW,288,0.0,5.0,45,0.00,,,0.00,weatherlink.com 1.10,2013-03-24 14:50:00,
2013-03-24 11:05:00,40.4,20.0,29.92,SE,135,1.0,4.0,45,0.00,,,0.00,weatherlink.com 1.10,2013-03-24 15:05:00,
2013-03-24 11:20:00,40.9,20.0,29.91,SSE,148,0.0,4.0,44,0.00,,,0.00,weatherlink.com 1.10,2013-03-24 15:20:00,
2013-03-24 11:35:00,41.3,21.0,29.90,ESE,120,1.0,6.0,45,0.00,,,0.00,weatherlink.com 1.10,2013-03-24 15:35:00,
2013-03-24 11:50:00,42.7,20.0,29.89,SSE,159,3.0,4.0,41,0.00,,,0.00,weatherlink.com 1.10,2013-03-24 15:50:00,
2013-03-24 12:05:00,43.2,22.0,29.87,NW,307,2.0,5.0,43,0.00,,,0.00,weatherlink.com 1.10,2013-03-24 16:05:00,
2013-03-24 12:20:00,43.2,22.0,29.85,North,5,0.0,7.0,43,0.00,,,0.00,weatherlink.com 1.10,2013-03-24 16:20:00,
2013-03-24 12:35:00,44.1,20.0,29.85,NE,36,1.0,5.0,39,0.00,,,0.00,weatherlink.com 1.10,2013-03-24 16:35:00,
2013-03-24 12:50:00,43.9,21.0,29.87,South,176,1.0,4.0,40,0.00,,,0.00,weatherlink.com 1.10,2013-03-24 16:50:00,
2013-03-24 13:05:00,44.0,21.0,29.87,North,4,0.0,3.0,40,0.00,,,0.00,weatherlink.com 1.10,2013-03-24 17:05:00,
2013-03-24 13:20:00,44.6,20.0,29.87,SSE,158,1.0,3.0,37,0.00,,,0.00,weatherlink.com 1.10,2013-03-24 17:20:00,
2013-03-24 13:35:00,45.6,21.0,29.85,SE,134,1.0,3.0,38,0.00,,,0.00,weatherlink.com 1.10,2013-03-24 17:35:00,
2013-03-24 13:50:00,46.0,20.0,29.82,North,4,2.0,3.0,36,0.00,,,0.00,weatherlink.com 1.10,2013-03-24 17:50:00,
2013-03-24 14:05:00,46.3,21.0,29.81,North,11,0.0,3.0,37,0.00,,,0.00,weatherlink.com 1.10,2013-03-24 18:05:00,
2013-03-24 14:20:00,46.3,21.0,29.79,SSE,166,2.0,5.0,36,0.00,,,0.00,weatherlink.com 1.10,2013-03-24 18:20:00,
2013-03-24 14:35:00,45.9,21.0,29.78,North,349,1.0,3.0,37,0.00,,,0.00,weatherlink.com 1.10,2013-03-24 18:35:00,
2013-03-24 14:50:00,45.5,20.0,29.77,SE,141,1.0,3.0,37,0.00,,,0.00,weatherlink.com 1.10,2013-03-24 18:50:00,
2013-03-24 15:05:00,45.8,20.0,29.77,East,101,2.0,3.0,36,0.00,,,0.00,weatherlink.com 1.10,2013-03-24 19:05:00,
2013-03-24 15:20:00,45.6,21.0,29.77,North,353,0.0,3.0,37,0.00,,,0.00,weatherlink.com 1.10,2013-03-24 19:20:00,
2013-03-24 15:35:00,45.5,20.0,29.76,North,4,1.0,4.0,36,0.00,,,0.00,weatherlink.com 1.10,2013-03-24 19:35:00,
2013-03-24 15:50:00,45.5,20.0,29.75,NNW,335,0.0,3.0,37,0.00,,,0.00,weatherlink.com 1.10,2013-03-24 19:50:00,
2013-03-24 16:05:00,45.5,20.0,29.75,North,8,1.0,3.0,37,0.00,,,0.00,weatherlink.com 1.10,2013-03-24 20:05:00,
2013-03-24 16:20:00,45.2,21.0,29.74,ENE,60,0.0,2.0,38,0.00,,,0.00,weatherlink.com 1.10,2013-03-24 20:20:00,
2013-03-24 16:36:00,44.7,20.0,29.74,NNE,19,0.0,2.0,38,0.00,,,0.00,weatherlink.com 1.10,2013-03-24 20:36:00,
2013-03-24 16:51:00,44.8,22.0,29.73,North,11,1.0,2.0,40,0.00,,,0.00,weatherlink.com 1.10,2013-03-24 20:51:00,
2013-03-24 17:06:00,44.5,20.0,29.73,NNW,346,0.0,2.0,38,0.00,,,0.00,weatherlink.com 1.10,2013-03-24 21:06:00,
2013-03-24 17:21:00,43.9,21.0,29.73,NNE,21,0.0,2.0,40,0.00,,,0.00,weatherlink.com 1.10,2013-03-24 21:21:00,
2013-03-24 17:36:00,43.7,21.0,29.73,NNE,22,1.0,1.0,40,0.00,,,0.00,weatherlink.com 1.10,2013-03-24 21:36:00,
2013-03-24 17:51:00,43.1,21.0,29.74,North,5,1.0,1.0,41,0.00,,,0.00,weatherlink.com 1.10,2013-03-24 21:51:00,
2013-03-24 18:06:00,42.8,20.0,29.73,North,354,0.0,4.0,41,0.00,,,0.00,weatherlink.com 1.10,2013-03-24 22:06:00,
2013-03-24 18:21:00,42.5,20.0,29.73,NNE,13,0.0,1.0,41,0.00,,,0.00,weatherlink.com 1.10,2013-03-24 22:21:00,
2013-03-24 18:36:00,42.2,20.0,29.73,NNE,13,0.0,1.0,42,0.00,,,0.00,weatherlink.com 1.10,2013-03-24 22:36:00,
2013-03-24 18:51:00,41.9,20.0,29.73,NNE,13,0.0,1.0,42,0.00,,,0.00,weatherlink.com 1.10,2013-03-24 22:51:00,
2013-03-24 19:06:00,41.6,21.0,29.74,NNE,13,0.0,0.0,44,0.00,,,0.00,weatherlink.com 1.10,2013-03-24 23:06:00,
2013-03-24 19:21:00,41.0,21.0,29.75,NNE,19,0.0,1.0,45,0.00,,,0.00,weatherlink.com 1.10,2013-03-24 23:21:00,
2013-03-24 19:36:00,41.2,21.0,29.76,NE,41,0.0,1.0,44,0.00,,,0.00,weatherlink.com 1.10,2013-03-24 23:36:00,
2013-03-24 19:51:00,41.2,21.0,29.76,NNE,21,0.0,2.0,45,0.00,,,0.00,weatherlink.com 1.10,2013-03-24 23:51:00,
2013-03-24 20:06:00,41.1,21.0,29.76,North,358,1.0,1.0,45,0.00,,,0.00,weatherlink.com 1.10,2013-03-25 00:06:00,
2013-03-24 21:06:00,38.5,22.0,29.77,NE,41,0.0,1.0,52,0.00,,,0.00,weatherlink.com 1.10,2013-03-25 01:06:00,
2013-03-24 21:21:00,38.3,23.0,29.77,North,4,1.0,1.0,54,0.00,,,0.00,weatherlink.com 1.10,2013-03-25 01:21:00,
2013-03-24 21:36:00,38.2,24.0,29.78,North,5,0.0,0.0,56,0.00,,,0.00,weatherlink.com 1.10,2013-03-25 01:36:00,
2013-03-24 22:36:00,36.4,24.0,29.77,North,5,0.0,0.0,60,0.00,,,0.00,weatherlink.com 1.10,2013-03-25 02:36:00,
2013-03-24 23:06:00,36.1,24.0,29.75,North,5,0.0,0.0,61,0.00,,,0.00,weatherlink.com 1.10,2013-03-25 03:06:00,
2013-03-24 23:36:00,35.7,24.0,29.73,North,5,0.0,0.0,63,0.00,,,0.00,weatherlink.com 1.10,2013-03-25 03:36:00,
2013-03-24 23:51:00,35.4,24.0,29.72,North,5,0.0,0.0,63,0.00,,,0.00,weatherlink.com 1.10,2013-03-25 03:51:00,